»·PEaware :: ASA180 KGPI-KBOI

ASA180 :: KGPI-KBOI

FLIGHT INFORMATION

Flight Status: Arrived
Operator:
Alaska Airlines
More flights by this operator :: More flights under this callsign
Pilot: Etienne B. (28927)
Aircraft: AIRBUS A320
(A320)
More flights by this aircraft type
Origin: KGPI Glacier Park Intl
United States
Destination: KBOI Boise Air Terminal/Gowen
United States
More flights between these airports :: More routes between these airports
Route: KILLY1 EYCHO COLLR BEWTE3
File this flight plan on PilotEdge
Remarks: RMK / SIMBRIEF
Altitude:
(Current/Filed)
36,000ft
Speed:
(Current/Filed)
446kts
Departed: 28-Apr-20 04:38 PM
Arrived: 28-Apr-20 05:33 PM
Distance/Time
Traveled:
296nm/0:55
Distance/Time
To Go:
Arrived

Flight Plot

Page will automatically refresh every two minutes.


Map Options




Map Legend


Flown Route
Filed Route
Departure Airport
Arrival Airport
Navaid (VOR, NDB)
Fix

Horizontal Profiles

Position Reports

Time Latitude Longitude Heading Altitude Ground
Speed
28-Apr-20 16:20 48.307792 -114.253354 125 2971ft 0kts
28-Apr-20 16:22 48.307792 -114.253354 125 2971ft 0kts
28-Apr-20 16:23 48.307792 -114.253354 125 2971ft 0kts
28-Apr-20 16:23 48.307792 -114.253354 125 2971ft 0kts
28-Apr-20 16:24 48.307792 -114.253354 125 2971ft 0kts
28-Apr-20 16:25 48.307792 -114.253354 125 2971ft 0kts
28-Apr-20 16:26 48.307792 -114.253354 125 2971ft 0kts
28-Apr-20 16:27 48.307792 -114.253355 125 2971ft 0kts
28-Apr-20 16:28 48.307792 -114.253355 125 2971ft 0kts
28-Apr-20 16:29 48.307926 -114.253638 125 2971ft 2kts
28-Apr-20 16:30 48.308044 -114.254381 62 2971ft 2kts
28-Apr-20 16:31 48.307888 -114.254626 34 2971ft 0kts
28-Apr-20 16:32 48.307888 -114.254626 34 2971ft 0kts
28-Apr-20 16:33 48.308932 -114.253554 34 2972ft 14kts
28-Apr-20 16:34 48.312870 -114.250926 34 2975ft 20kts
28-Apr-20 16:35 48.316966 -114.246652 34 2978ft 18kts
28-Apr-20 16:36 48.318277 -114.245513 339 2978ft 0kts
28-Apr-20 16:37 48.317880 -114.247790 213 2978ft 41kts
28-Apr-20 16:38 48.286539 -114.284515 232 4587ft 181kts
28-Apr-20 16:39 48.269536 -114.358422 248 7610ft 203kts
28-Apr-20 16:40 48.234298 -114.432373 224 10289ft 246kts
28-Apr-20 16:41 48.178882 -114.511254 227 12095ft 314kts
28-Apr-20 16:42 48.106825 -114.606169 223 13687ft 364kts
28-Apr-20 16:43 48.027673 -114.703515 223 16045ft 375kts
28-Apr-20 16:44 47.945300 -114.801910 215 18145ft 390kts
28-Apr-20 16:45 47.839107 -114.854299 202 19937ft 412kts
28-Apr-20 16:46 47.727844 -114.904215 203 21565ft 423kts
28-Apr-20 16:47 47.614276 -114.955085 203 23012ft 434kts
28-Apr-20 16:48 47.533926 -114.990958 204 23984ft 440kts
28-Apr-20 16:49 47.420180 -115.041522 204 25249ft 447kts
28-Apr-20 16:50 47.300412 -115.094511 204 26464ft 455kts
28-Apr-20 16:51 47.178817 -115.148052 204 27585ft 461kts
28-Apr-20 16:52 47.055021 -115.202297 204 28604ft 467kts
28-Apr-20 16:53 46.930088 -115.256765 203 29582ft 469kts
28-Apr-20 16:54 46.805685 -115.310725 203 30655ft 467kts
28-Apr-20 16:55 46.681243 -115.364471 203 31659ft 466kts
28-Apr-20 16:56 46.557147 -115.417809 204 32598ft 465kts
28-Apr-20 16:57 46.433823 -115.470567 204 33457ft 464kts
28-Apr-20 16:58 46.310192 -115.523206 204 34260ft 463kts
28-Apr-20 16:59 46.186916 -115.575441 204 35049ft 461kts
28-Apr-20 17:00 46.064302 -115.627160 204 35773ft 459kts
28-Apr-20 17:01 45.942673 -115.678207 202 36290ft 453kts
28-Apr-20 17:02 45.822226 -115.728566 202 36297ft 452kts
28-Apr-20 17:03 45.701674 -115.778742 202 36299ft 453kts
28-Apr-20 17:04 45.581201 -115.828613 202 35278ft 451kts
28-Apr-20 17:05 45.460175 -115.878556 202 32348ft 458kts
28-Apr-20 17:06 45.337134 -115.929067 201 29213ft 466kts
28-Apr-20 17:07 45.212126 -115.980151 200 25725ft 474kts
28-Apr-20 17:08 45.087506 -116.030796 200 24331ft 462kts
28-Apr-20 17:09 44.963792 -116.080920 199 23330ft 462kts
28-Apr-20 17:10 44.841413 -116.130244 198 22347ft 456kts
28-Apr-20 17:11 44.720818 -116.178642 198 21368ft 449kts
28-Apr-20 17:12 44.601558 -116.226304 198 20383ft 443kts
28-Apr-20 17:13 44.483713 -116.273200 198 19398ft 437kts
28-Apr-20 17:14 44.368929 -116.317918 195 17664ft 422kts
28-Apr-20 17:15 44.257085 -116.354406 194 15201ft 406kts
28-Apr-20 17:16 44.150272 -116.388157 193 13487ft 373kts
28-Apr-20 17:17 44.055744 -116.416848 193 12824ft 324kts
28-Apr-20 17:18 43.972197 -116.422018 169 11878ft 297kts
28-Apr-20 17:19 43.893770 -116.401183 170 10990ft 273kts
28-Apr-20 17:20 43.820668 -116.382248 170 9841ft 265kts
28-Apr-20 17:21 43.748802 -116.363736 170 8655ft 261kts
28-Apr-20 17:22 43.681464 -116.340002 136 8019ft 245kts
28-Apr-20 17:23 43.649882 -116.256405 115 8016ft 246kts
28-Apr-20 17:24 43.620474 -116.171938 116 7549ft 242kts
28-Apr-20 17:25 43.591043 -116.089412 116 6552ft 238kts
28-Apr-20 17:26 43.561349 -116.008480 129 6019ft 238kts
28-Apr-20 17:27 43.503087 -116.005345 212 5641ft 217kts
28-Apr-20 17:28 43.504851 -116.062608 311 5114ft 166kts
28-Apr-20 17:29 43.527707 -116.113312 295 4288ft 152kts
28-Apr-20 17:30 43.544528 -116.162468 296 3580ft 144kts
28-Apr-20 17:31 43.562028 -116.212995 296 2862ft 127kts
28-Apr-20 17:32 43.566223 -116.223996 353 2850ft 6kts
28-Apr-20 17:33 43.566667 -116.221070 35 2854ft 8kts

Navigation Log

Ident Type
Flight plan parsing failed, navigation log unavailable